Aérodrome :
LOGIN :

S'inscrire | Disclaimer

   EN    FR    IT 

 










Légende :    VFR   VFR Marginal   IFR   IFR Intensif   IFR Très Intensif
Visi : 
Plafond : 
>= 8 km
>= 3000ft
5 à 8 km
1000 à 3000 ft
1500m à 5 km
500 à 1000 ft
800 à 1500m
200 à 500 ft
< 800m
< 200 ft
Symboles :   Orages  Brouillard  Fortes neiges  Fortes précipitations  Vent > 20 kt
SIGMETs :   Divers  Orages  Givrage  Turbulence  Onde Orograph.  Cendres Volcan.







- Altitude de l'aérodrome : 195 ft
- Voir les cartes d'approche


LFMY - Salon de Provence

DERNIER METAR :
  • 251600Z AUTO 33030G49KT CAVOK 16/M01 Q1012 NOSIG

METARs EXPIRÉS :
  • 251530Z AUTO 33031G45KT CAVOK 16/M00 Q1012 NOSIG
  • 251500Z AUTO 33036G50KT CAVOK 17/00 Q1012 TEMPO 34025G40KT
  • 251430Z AUTO 32027G44KT CAVOK 17/01 Q1012 NOSIG
  • 251400Z AUTO 33028G43KT 290V360 CAVOK 17/02 Q1013 NOSIG
  • 251330Z AUTO 32026KT CAVOK 17/03 Q1013 BECMG 34025G40KT

TAF TAF LFMY
Valide du 25 à 15h jusqu'au 26 à 15h UTC


251400Z 2515/2615 34025G40KT CAVOK
BECMG 2516/2518 34035G52KT
BECMG 2602/2605 34020G35KT
BECMG 2608/2611 34010G20KT
Pas de NOTAMs connus pour ce terrain.
2 SIGMETs publiés pour la FIR Marseille (LFMM) :
 
Turbulence forte
LFMM SIGMET 4 VALID 251600/252000 LFPW
LFMM MARSEILLE FIR/UIR SEV TURB FCST WI N4200 E00430 - N4215 E00230 - N4330 E00245 - N4515 E00430 - N4515 E00530 - N4230 E00700 - N4200 E00430 SFC/FL060 STNR NC=
Turbulence forte
LFMM SIGMET 3 VALID 251200/251600 LFPW
LFMM MARSEILLE FIR/UIR SEV TURB FCST WI N4200 E00430 - N4215 E00230 - N4330 E00245 - N4500 E00415 - N4500 E00600 - N4330 E00515 - N4300 E00600 - N4200 E00430 SFC/FL060 STNR NC=



MET'MAP, la Météo Aéronautique d'un coup d'oeil ! - Copyright ORBIFLY Décembre 2007 - Disclaimer

ORBIFLY MET'MAP TEAM :

Programmation & Développement : Alexandra Zaïnal
Conception & Développement : Baudouin d'Aumeries
Co-Programmation & Développement : Marc-Olivier Méhu
Soutien technique & logistique : Manuel Goepfert

Contact : metmap@orbifly.com




SOURCES & CREDITS :

   NOAA